createdAt,value
2018-04-19T00:00:11.390Z,14.10
2018-04-19T00:02:38.410Z,14.10
2018-04-19T00:05:06.793Z,14.00
2018-04-19T00:07:34.023Z,14.00
2018-04-19T00:10:01.079Z,13.90
2018-04-19T00:12:28.092Z,13.90
2018-04-19T00:14:55.087Z,13.90
2018-04-19T00:17:22.132Z,13.90
2018-04-19T00:19:49.193Z,13.90
2018-04-19T00:22:16.355Z,13.80
2018-04-19T00:24:43.428Z,13.70
2018-04-19T00:27:10.517Z,13.60
2018-04-19T00:29:37.632Z,13.50
2018-04-19T00:32:04.743Z,13.50
2018-04-19T00:34:31.881Z,13.50
2018-04-19T00:36:58.910Z,13.30
2018-04-19T00:39:25.991Z,13.20
2018-04-19T00:41:53.053Z,13.10
2018-04-19T00:44:20.862Z,12.80
2018-04-19T00:46:47.939Z,12.80
2018-04-19T00:49:14.966Z,12.40
2018-04-19T00:51:41.986Z,12.20
2018-04-19T00:54:09.046Z,12.10
2018-04-19T00:56:36.118Z,12.10
2018-04-19T00:59:03.172Z,12.10
2018-04-19T01:01:30.219Z,12.40
2018-04-19T01:03:57.263Z,12.70
2018-04-19T01:06:24.354Z,12.70
2018-04-19T01:08:52.141Z,12.60
2018-04-19T01:11:23.402Z,12.60
2018-04-19T01:13:50.453Z,12.50
2018-04-19T01:16:18.249Z,12.40
2018-04-19T01:18:45.283Z,12.40
2018-04-19T01:21:12.419Z,12.40
2018-04-19T01:23:39.480Z,12.40
2018-04-19T01:26:06.539Z,12.40
2018-04-19T01:28:33.586Z,12.40
2018-04-19T01:31:00.666Z,12.50
2018-04-19T01:33:28.452Z,12.70
2018-04-19T01:36:13.717Z,12.70
2018-04-19T01:38:41.782Z,12.90
2018-04-19T01:41:09.553Z,12.90
2018-04-19T01:43:36.661Z,12.90
2018-04-19T01:46:03.752Z,13.00
2018-04-19T01:48:31.521Z,13.10
2018-04-19T01:50:59.349Z,13.10
2018-04-19T01:53:26.364Z,13.10
2018-04-19T01:55:53.424Z,13.20
2018-04-19T01:58:20.454Z,13.30
2018-04-19T02:00:47.478Z,13.20
2018-04-19T02:03:14.517Z,13.20
2018-04-19T02:05:41.599Z,13.10
2018-04-19T02:08:08.679Z,13.10
2018-04-19T02:10:37.233Z,13.40
2018-04-19T02:13:04.321Z,13.40
2018-04-19T02:15:31.473Z,13.30
2018-04-19T02:17:58.509Z,13.30
2018-04-19T02:20:25.561Z,13.40
2018-04-19T02:22:52.614Z,13.40
2018-04-19T02:25:19.682Z,13.50
2018-04-19T02:27:46.768Z,13.40
2018-04-19T02:30:13.818Z,13.40
2018-04-19T02:32:40.852Z,13.30
2018-04-19T02:35:07.881Z,13.20
2018-04-19T02:37:34.926Z,13.10
2018-04-19T02:40:02.004Z,13.20
2018-04-19T02:42:29.051Z,13.30
2018-04-19T02:44:56.122Z,13.20
2018-04-19T02:47:23.199Z,13.10
2018-04-19T02:49:51.002Z,13.20
2018-04-19T02:52:18.001Z,13.20
2018-04-19T02:54:45.073Z,13.30
2018-04-19T02:57:12.829Z,13.30
2018-04-19T02:59:39.876Z,13.30
2018-04-19T03:02:06.965Z,13.30
2018-04-19T03:04:33.999Z,13.40
2018-04-19T03:07:01.080Z,13.40
2018-04-19T03:09:43.517Z,13.40
2018-04-19T03:12:18.272Z,13.50
2018-04-19T03:18:01.443Z,13.50
2018-04-19T03:20:31.671Z,13.40
2018-04-19T03:23:03.990Z,13.30
2018-04-19T03:25:31.360Z,13.20
2018-04-19T03:27:58.511Z,13.20
2018-04-19T03:30:26.421Z,13.30
2018-04-19T03:32:53.588Z,13.30
2018-04-19T03:35:20.759Z,13.30
2018-04-19T03:37:47.833Z,13.20
2018-04-19T03:40:15.610Z,13.10
2018-04-19T03:42:43.404Z,13.10
2018-04-19T03:45:10.446Z,13.10
2018-04-19T03:47:37.523Z,13.10
2018-04-19T03:50:04.553Z,13.00
2018-04-19T03:52:31.605Z,12.90
2018-04-19T03:54:58.626Z,12.90
2018-04-19T03:57:25.756Z,12.80
2018-04-19T03:59:53.538Z,12.80
2018-04-19T04:02:20.561Z,12.80
2018-04-19T04:04:48.381Z,12.70
2018-04-19T04:07:15.451Z,12.70
2018-04-19T04:09:42.549Z,12.60
2018-04-19T04:12:09.611Z,12.70
2018-04-19T04:14:36.679Z,12.70
2018-04-19T04:17:21.943Z,12.70
2018-04-19T04:20:01.956Z,12.80
2018-04-19T04:22:47.864Z,12.90
2018-04-19T04:25:14.929Z,12.90
2018-04-19T04:27:42.161Z,12.90
2018-04-19T04:30:09.207Z,13.00
2018-04-19T04:32:36.256Z,13.00
2018-04-19T04:35:03.427Z,13.00
2018-04-19T04:37:30.540Z,13.00
2018-04-19T04:39:58.359Z,12.90
2018-04-19T04:42:25.416Z,12.90
2018-04-19T04:44:52.481Z,12.90
2018-04-19T04:47:19.562Z,12.80
2018-04-19T04:49:46.649Z,12.80
2018-04-19T04:52:13.713Z,12.80
2018-04-19T04:54:40.782Z,12.90
2018-04-19T04:57:08.607Z,13.00
2018-04-19T04:59:35.761Z,13.00
2018-04-19T05:02:02.855Z,13.10
2018-04-19T05:04:30.698Z,13.10
2018-04-19T05:06:58.611Z,13.10
2018-04-19T05:09:25.726Z,13.10
2018-04-19T05:11:53.678Z,13.40
2018-04-19T05:14:20.761Z,13.40
2018-04-19T05:16:47.901Z,13.50
2018-04-19T05:19:15.773Z,13.60
2018-04-19T05:21:43.840Z,13.60
2018-04-19T05:24:11.643Z,13.80
2018-04-19T05:26:38.723Z,13.70
2018-04-19T05:29:05.814Z,13.90
2018-04-19T05:31:32.898Z,14.20
2018-04-19T05:34:00.002Z,14.30
2018-04-19T05:36:27.054Z,14.50
2018-04-19T05:38:54.140Z,14.70
2018-04-19T05:41:21.278Z,15.00
2018-04-19T05:43:48.359Z,15.10
2018-04-19T05:46:15.448Z,15.20
2018-04-19T05:48:43.278Z,15.60
2018-04-19T05:51:10.399Z,15.70
2018-04-19T05:53:37.463Z,15.90
2018-04-19T05:56:04.531Z,15.80
2018-04-19T05:58:31.598Z,15.80
2018-04-19T06:00:58.675Z,15.80
2018-04-19T06:03:25.735Z,16.20
2018-04-19T06:05:52.811Z,16.30
2018-04-19T06:08:19.871Z,16.50
2018-04-19T06:10:46.939Z,16.60
2018-04-19T06:13:14.063Z,16.60
2018-04-19T06:15:41.175Z,16.60
2018-04-19T06:18:08.238Z,16.80
2018-04-19T06:20:35.336Z,16.80
2018-04-19T06:23:02.456Z,16.80
2018-04-19T06:25:29.535Z,16.80
2018-04-19T06:27:56.649Z,17.00
2018-04-19T06:30:23.771Z,17.30
2018-04-19T06:32:50.831Z,17.50
2018-04-19T06:35:17.901Z,17.80
2018-04-19T06:37:45.683Z,17.60
2018-04-19T06:40:13.435Z,17.80
2018-04-19T06:42:40.423Z,17.80
2018-04-19T06:45:07.405Z,18.10
2018-04-19T06:47:34.383Z,18.20
2018-04-19T06:50:01.401Z,18.40
2018-04-19T06:52:28.391Z,18.60
2018-04-19T06:54:56.123Z,18.80
2018-04-19T06:57:23.178Z,18.80
2018-04-19T06:59:50.531Z,19.20
2018-04-19T07:02:17.531Z,18.90
2018-04-19T07:04:44.533Z,19.00
2018-04-19T07:07:11.586Z,19.00
2018-04-19T07:09:38.574Z,19.20
2018-04-19T07:12:05.603Z,19.50
2018-04-19T07:14:33.359Z,19.90
2018-04-19T07:17:00.405Z,19.90
2018-04-19T07:19:28.161Z,19.40
2018-04-19T07:21:55.876Z,19.30
2018-04-19T07:24:22.940Z,19.30
2018-04-19T07:26:49.947Z,19.50
2018-04-19T07:29:17.058Z,19.50
2018-04-19T07:31:44.068Z,19.60
2018-04-19T07:34:11.123Z,20.00
2018-04-19T07:36:38.186Z,20.30
2018-04-19T07:39:05.365Z,20.80
2018-04-19T07:41:33.120Z,21.00
2018-04-19T07:44:00.129Z,21.00
2018-04-19T07:46:27.136Z,21.00
2018-04-19T07:48:54.876Z,20.90
2018-04-19T07:51:22.925Z,21.20
2018-04-19T07:53:49.933Z,21.20
2018-04-19T07:56:17.076Z,21.30
2018-04-19T07:58:44.100Z,21.50
2018-04-19T08:01:11.933Z,21.90
2018-04-19T08:03:39.064Z,21.80
2018-04-19T08:06:07.596Z,21.60
2018-04-19T08:08:35.384Z,21.60
2018-04-19T08:11:02.406Z,21.60
2018-04-19T08:13:30.159Z,22.80
2018-04-19T08:15:57.234Z,22.80
2018-04-19T08:18:24.971Z,23.10
2018-04-19T08:20:51.941Z,23.10
2018-04-19T08:23:19.695Z,23.10
2018-04-19T08:25:47.451Z,23.10
2018-04-19T08:28:14.501Z,23.10
2018-04-19T08:30:42.301Z,23.70
2018-04-19T08:33:09.321Z,23.70
2018-04-19T08:35:36.366Z,24.10
2018-04-19T08:38:04.165Z,23.90
2018-04-19T08:40:31.184Z,23.90
2018-04-19T08:42:58.231Z,23.90
2018-04-19T08:45:25.993Z,24.20
2018-04-19T08:47:53.765Z,24.30
2018-04-19T08:50:21.496Z,24.60
2018-04-19T08:52:48.505Z,24.60
2018-04-19T08:55:15.516Z,24.40
2018-04-19T08:57:43.278Z,24.40
2018-04-19T09:00:11.023Z,24.10
2018-04-19T09:02:38.043Z,24.10
2018-04-19T09:05:05.054Z,23.90
2018-04-19T09:07:32.096Z,23.60
2018-04-19T09:09:59.176Z,23.50
2018-04-19T09:12:26.161Z,23.40
2018-04-19T09:14:53.397Z,23.50
2018-04-19T09:17:20.508Z,23.60
2018-04-19T09:19:47.556Z,23.50
2018-04-19T09:22:14.539Z,23.40
2018-04-19T09:24:41.524Z,23.20
2018-04-19T09:27:09.279Z,23.30
2018-04-19T09:29:36.418Z,23.20
2018-04-19T09:32:04.191Z,23.70
2018-04-19T09:34:31.269Z,23.70
2018-04-19T09:36:58.268Z,23.60
2018-04-19T09:39:25.240Z,23.70
2018-04-19T09:41:52.303Z,23.60
2018-04-19T09:44:19.314Z,23.60
2018-04-19T09:46:46.310Z,23.70
2018-04-19T09:49:13.281Z,23.60
2018-04-19T09:51:40.333Z,23.50
2018-04-19T09:54:07.491Z,23.20
2018-04-19T09:56:35.180Z,23.80
2018-04-19T09:59:12.067Z,24.60
2018-04-19T10:01:46.050Z,25.20
2018-04-19T10:04:13.110Z,25.20
2018-04-19T10:06:41.196Z,24.80
2018-04-19T10:09:08.949Z,25.40
2018-04-19T10:11:35.984Z,25.40
2018-04-19T10:14:03.020Z,25.90
2018-04-19T10:16:30.051Z,26.30
2018-04-19T10:18:57.051Z,26.50
2018-04-19T10:21:24.942Z,27.00
2018-04-19T10:23:51.906Z,27.00
2018-04-19T10:26:19.053Z,27.00
2018-04-19T10:28:46.374Z,26.50
2018-04-19T10:31:13.357Z,26.40
2018-04-19T10:33:40.370Z,26.20
2018-04-19T10:36:08.172Z,26.90
2018-04-19T10:38:35.216Z,26.90
2018-04-19T10:41:02.211Z,27.10
2018-04-19T10:43:29.971Z,27.60
2018-04-19T10:45:56.959Z,27.60
2018-04-19T10:48:23.970Z,27.80
2018-04-19T10:50:51.725Z,27.60
2018-04-19T10:53:18.734Z,27.50
2018-04-19T10:55:45.768Z,27.50
2018-04-19T10:58:12.861Z,27.90
2018-04-19T11:00:39.863Z,28.00
2018-04-19T11:03:06.901Z,27.80
2018-04-19T11:05:34.007Z,27.80
2018-04-19T11:08:00.973Z,27.60
2018-04-19T11:10:28.768Z,27.50
2018-04-19T11:12:56.083Z,27.60
2018-04-19T11:15:23.933Z,27.60
2018-04-19T11:17:50.960Z,27.70
2018-04-19T11:20:17.969Z,27.80
2018-04-19T11:22:45.910Z,27.70
2018-04-19T11:25:13.682Z,27.80
2018-04-19T11:27:40.743Z,27.90
2018-04-19T11:30:08.472Z,27.90
2018-04-19T11:32:35.452Z,27.90
2018-04-19T11:35:02.505Z,28.00
2018-04-19T11:37:29.529Z,28.30
2018-04-19T11:39:56.542Z,28.60
2018-04-19T11:42:23.847Z,28.80
2018-04-19T11:44:53.542Z,29.00
2018-04-19T11:47:20.619Z,28.90
2018-04-19T11:49:47.626Z,29.00
2018-04-19T11:52:14.839Z,29.40
2018-04-19T11:54:41.961Z,29.20
2018-04-19T11:57:09.140Z,29.40
2018-04-19T11:59:36.209Z,29.00
2018-04-19T12:02:03.311Z,28.30
2018-04-19T12:04:30.304Z,27.40
2018-04-19T12:06:57.298Z,26.60
2018-04-19T12:09:25.056Z,26.20
2018-04-19T12:11:52.784Z,26.70
2018-04-19T12:14:19.761Z,26.80
2018-04-19T12:16:47.552Z,26.80
2018-04-19T12:19:14.583Z,26.80
2018-04-19T12:21:41.680Z,26.90
2018-04-19T12:24:08.708Z,27.40
2018-04-19T12:26:35.819Z,28.00
2018-04-19T12:29:03.681Z,28.90
2018-04-19T12:31:31.434Z,28.50
2018-04-19T12:33:58.453Z,28.50
2018-04-19T12:36:25.475Z,27.80
2018-04-19T12:38:52.494Z,27.80
2018-04-19T12:41:19.539Z,28.30
2018-04-19T12:43:46.589Z,28.60
2018-04-19T12:46:14.335Z,29.10
2018-04-19T12:48:41.355Z,29.10
2018-04-19T12:51:08.359Z,29.00
2018-04-19T12:53:36.102Z,29.30
2018-04-19T12:56:03.836Z,29.60
2018-04-19T12:58:30.834Z,29.60
2018-04-19T13:00:57.849Z,29.40
2018-04-19T13:03:24.868Z,29.10
2018-04-19T13:05:51.839Z,28.80
2018-04-19T13:08:18.825Z,28.50
2018-04-19T13:10:45.814Z,28.70
2018-04-19T13:13:12.891Z,28.60
2018-04-19T13:15:39.912Z,29.10
2018-04-19T13:18:06.984Z,29.20
2018-04-19T13:20:34.016Z,29.40
2018-04-19T13:23:00.991Z,29.00
2018-04-19T13:25:28.745Z,28.90
2018-04-19T13:27:55.718Z,28.90
2018-04-19T13:30:22.738Z,29.00
2018-04-19T13:32:49.751Z,29.40
2018-04-19T13:35:16.759Z,29.10
2018-04-19T13:37:43.771Z,29.00
2018-04-19T13:40:10.806Z,29.10
2018-04-19T13:42:37.831Z,28.80
2018-04-19T13:45:04.888Z,29.00
2018-04-19T13:47:31.858Z,29.40
2018-04-19T13:49:58.842Z,29.60
2018-04-19T13:52:25.927Z,29.50
2018-04-19T13:54:52.922Z,28.80
2018-04-19T13:57:20.677Z,27.80
2018-04-19T13:59:47.726Z,27.80
2018-04-19T14:02:14.881Z,27.40
2018-04-19T14:04:42.052Z,27.70
2018-04-19T14:07:09.762Z,28.30
2018-04-19T14:09:36.854Z,28.30
2018-04-19T14:12:03.884Z,28.40
2018-04-19T14:14:30.889Z,29.00
2018-04-19T14:16:58.569Z,29.00
2018-04-19T14:19:25.599Z,28.00
2018-04-19T14:21:52.599Z,27.30
2018-04-19T14:24:19.616Z,27.00
2018-04-19T14:26:46.597Z,27.40
2018-04-19T14:29:14.326Z,27.90
2018-04-19T14:31:41.311Z,28.30
2018-04-19T14:34:08.426Z,28.40
2018-04-19T14:36:35.410Z,28.30
2018-04-19T14:39:02.529Z,28.20
2018-04-19T14:41:29.586Z,28.10
2018-04-19T14:43:56.584Z,28.00
2018-04-19T14:46:23.659Z,27.80
2018-04-19T14:48:50.764Z,27.60
2018-04-19T14:51:17.739Z,27.50
2018-04-19T14:53:44.809Z,27.40
2018-04-19T14:56:11.796Z,27.40
2018-04-19T14:58:38.858Z,27.40
2018-04-19T15:01:05.911Z,27.40
2018-04-19T15:03:33.674Z,26.80
2018-04-19T15:06:00.704Z,26.70
2018-04-19T15:08:27.674Z,26.80
2018-04-19T15:10:55.418Z,26.50
2018-04-19T15:13:22.496Z,26.50
2018-04-19T15:15:49.578Z,26.40
2018-04-19T15:18:16.639Z,26.40
2018-04-19T15:20:43.653Z,26.30
2018-04-19T15:23:10.636Z,26.40
2018-04-19T15:25:37.629Z,26.40
2018-04-19T15:28:04.696Z,26.40
2018-04-19T15:30:31.756Z,26.50
2018-04-19T15:32:58.777Z,26.70
2018-04-19T15:35:25.767Z,26.60
2018-04-19T15:37:53.541Z,26.20
2018-04-19T15:40:20.523Z,26.20
2018-04-19T15:42:47.493Z,26.20
2018-04-19T15:45:14.491Z,26.20
2018-04-19T15:47:41.523Z,26.40
2018-04-19T15:50:08.556Z,26.60
2018-04-19T15:52:35.536Z,26.80
2018-04-19T15:55:02.597Z,26.50
2018-04-19T15:57:29.631Z,26.40
2018-04-19T15:59:56.653Z,26.00
2018-04-19T16:02:23.636Z,25.70
2018-04-19T16:04:51.369Z,25.20
2018-04-19T16:07:18.369Z,25.20
2018-04-19T16:09:45.372Z,25.30
2018-04-19T16:12:12.469Z,25.30
2018-04-19T16:14:39.459Z,25.50
2018-04-19T16:17:06.479Z,25.30
2018-04-19T16:19:33.515Z,25.20
2018-04-19T16:22:00.599Z,25.10
2018-04-19T16:24:27.569Z,24.80
2018-04-19T16:26:55.307Z,24.60
2018-04-19T16:29:22.328Z,24.60
2018-04-19T16:31:49.318Z,24.20
2018-04-19T16:34:17.088Z,23.40
2018-04-19T16:36:44.845Z,23.20
2018-04-19T16:39:11.825Z,23.20
2018-04-19T16:41:38.899Z,22.90
2018-04-19T16:44:05.963Z,22.80
2018-04-19T16:46:32.979Z,22.60
2018-04-19T16:49:00.111Z,22.50
2018-04-19T16:51:27.124Z,22.40
2018-04-19T16:53:54.143Z,22.40
2018-04-19T16:56:21.216Z,22.30
2018-04-19T16:58:48.196Z,22.20
2018-04-19T17:01:15.315Z,22.10
2018-04-19T17:03:42.289Z,22.00
2018-04-19T17:06:09.405Z,21.90
2018-04-19T17:08:36.416Z,21.90
2018-04-19T17:11:03.519Z,21.80
2018-04-19T17:13:30.529Z,21.70
2018-04-19T17:15:57.521Z,21.70
2018-04-19T17:18:24.561Z,21.60
2018-04-19T17:20:52.419Z,21.50
2018-04-19T17:23:20.211Z,21.40
2018-04-19T17:25:47.249Z,21.40
2018-04-19T17:28:14.248Z,21.30
2018-04-19T17:30:41.256Z,21.30
2018-04-19T17:33:08.296Z,21.20
2018-04-19T17:35:36.017Z,21.00
2018-04-19T17:38:03.076Z,21.00
2018-04-19T17:40:30.209Z,20.90
2018-04-19T17:42:57.290Z,20.80
2018-04-19T17:45:25.055Z,20.60
2018-04-19T17:47:52.823Z,20.50
2018-04-19T17:50:20.567Z,20.50
2018-04-19T17:52:48.427Z,20.40
2018-04-19T17:55:15.441Z,20.40
2018-04-19T17:57:42.479Z,20.30
2018-04-19T18:00:09.531Z,20.40
2018-04-19T18:02:36.519Z,20.30
2018-04-19T18:05:03.612Z,20.20
2018-04-19T18:07:30.971Z,20.00
2018-04-19T18:09:57.964Z,19.80
2018-04-19T18:12:24.983Z,19.70
2018-04-19T18:14:52.017Z,19.60
2018-04-19T18:17:19.019Z,19.40
2018-04-19T18:19:46.757Z,19.20
2018-04-19T18:22:13.819Z,19.20
2018-04-19T18:24:40.893Z,19.10
2018-04-19T18:27:08.629Z,19.00
2018-04-19T18:29:36.248Z,18.90
2018-04-19T18:32:03.367Z,18.80
2018-04-19T18:34:30.367Z,18.70
2018-04-19T18:36:57.422Z,18.70
2018-04-19T18:39:24.439Z,18.70
2018-04-19T18:41:51.482Z,18.80
2018-04-19T18:44:18.491Z,18.80
2018-04-19T18:46:45.513Z,18.80
2018-04-19T18:49:12.522Z,18.70
2018-04-19T18:51:39.563Z,18.70
2018-04-19T18:54:06.639Z,18.50
2018-04-19T18:56:34.551Z,18.40
2018-04-19T18:59:01.615Z,18.50
2018-04-19T19:01:28.606Z,18.40
2018-04-19T19:03:55.629Z,18.30
2018-04-19T19:06:22.954Z,18.20
2018-04-19T19:08:50.762Z,18.10
2018-04-19T19:11:18.540Z,18.10
2018-04-19T19:13:45.610Z,18.10
2018-04-19T19:16:12.838Z,18.00
2018-04-19T19:18:58.070Z,17.90
2018-04-19T19:21:25.225Z,17.90
2018-04-19T19:23:52.427Z,18.00
2018-04-19T19:26:19.506Z,18.00
2018-04-19T19:28:47.286Z,17.90
2018-04-19T19:31:14.464Z,17.90
2018-04-19T19:33:41.529Z,17.80
2018-04-19T19:36:08.641Z,17.80
2018-04-19T19:38:35.805Z,17.70
2018-04-19T19:41:03.773Z,17.70
2018-04-19T19:43:30.893Z,17.70
2018-04-19T19:45:58.696Z,17.70
2018-04-19T19:48:26.731Z,17.70
2018-04-19T19:50:53.789Z,17.70
2018-04-19T19:53:20.890Z,17.60
2018-04-19T19:55:48.154Z,17.60
2018-04-19T19:58:15.260Z,17.50
2018-04-19T20:00:42.266Z,17.30
2018-04-19T20:03:11.123Z,17.30
2018-04-19T20:05:38.239Z,17.30
2018-04-19T20:08:05.416Z,17.20
2018-04-19T20:10:32.994Z,16.90
2018-04-19T20:13:00.119Z,16.90
2018-04-19T20:15:27.249Z,16.90
2018-04-19T20:17:54.351Z,16.80
2018-04-19T20:20:21.534Z,16.60
2018-04-19T20:22:49.384Z,16.50
2018-04-19T20:25:17.262Z,16.50
2018-04-19T20:27:45.552Z,16.60
2018-04-19T20:30:12.717Z,16.50
2018-04-19T20:32:40.787Z,16.60
2018-04-19T20:35:07.973Z,16.60
2018-04-19T20:37:35.063Z,16.60
2018-04-19T20:40:02.256Z,16.60
2018-04-19T20:42:29.380Z,16.50
2018-04-19T20:44:56.564Z,16.50
2018-04-19T20:47:23.651Z,16.40
2018-04-19T20:49:51.556Z,16.30
2018-04-19T20:52:18.628Z,16.30
2018-04-19T20:54:45.723Z,16.20
2018-04-19T20:57:12.868Z,16.20
2018-04-19T20:59:40.776Z,16.10
2018-04-19T21:02:07.906Z,16.10
2018-04-19T21:04:35.713Z,16.00
2018-04-19T21:07:02.909Z,16.00
2018-04-19T21:09:29.986Z,15.90
2018-04-19T21:11:57.059Z,15.90
2018-04-19T21:14:24.137Z,15.90
2018-04-19T21:16:51.273Z,15.90
2018-04-19T21:19:18.524Z,15.90
2018-04-19T21:21:45.573Z,15.90
2018-04-19T21:24:12.678Z,15.90
2018-04-19T21:26:39.799Z,15.80
2018-04-19T21:29:07.558Z,15.70
2018-04-19T21:31:35.383Z,15.50
2018-04-19T21:34:02.543Z,15.50
2018-04-19T21:36:29.645Z,15.40
2018-04-19T21:38:56.727Z,15.30
2018-04-19T21:41:23.786Z,15.10
2018-04-19T21:43:50.831Z,15.00
2018-04-19T21:46:17.897Z,14.90
2018-04-19T21:48:44.979Z,14.80
2018-04-19T21:51:12.799Z,14.90
2018-04-19T21:53:39.878Z,14.90
2018-04-19T21:56:06.992Z,15.00
2018-04-19T21:58:34.161Z,14.90
2018-04-19T22:01:01.306Z,15.00
2018-04-19T22:03:28.358Z,15.00
2018-04-19T22:05:55.404Z,14.90
2018-04-19T22:08:22.523Z,15.00
2018-04-19T22:10:49.623Z,14.90
2018-04-19T22:13:16.708Z,14.80
2018-04-19T22:15:43.777Z,14.60
2018-04-19T22:18:10.942Z,14.50
2018-04-19T22:20:38.021Z,14.40
2018-04-19T22:23:05.848Z,14.10
2018-04-19T22:25:32.974Z,14.10
2018-04-19T22:28:00.096Z,14.00
2018-04-19T22:30:27.180Z,13.90
2018-04-19T22:32:54.288Z,13.90
2018-04-19T22:35:21.401Z,13.80
2018-04-19T22:37:48.471Z,13.70
2018-04-19T22:40:16.301Z,13.60
2018-04-19T22:42:43.379Z,13.60
2018-04-19T22:45:11.185Z,13.50
2018-04-19T22:47:38.261Z,13.50
2018-04-19T22:50:05.354Z,13.30
2018-04-19T22:52:33.164Z,13.20
2018-04-19T22:55:00.263Z,13.20
2018-04-19T22:57:28.081Z,13.30
2018-04-19T22:59:55.091Z,13.30
2018-04-19T23:02:22.901Z,13.30
2018-04-19T23:04:49.963Z,13.30
2018-04-19T23:07:17.054Z,13.20
2018-04-19T23:09:44.141Z,13.00
2018-04-19T23:12:11.313Z,12.80
2018-04-19T23:14:38.381Z,12.80
2018-04-19T23:17:06.211Z,12.50
2018-04-19T23:19:33.399Z,12.50
2018-04-19T23:22:01.251Z,12.40
2018-04-19T23:24:28.294Z,12.40
2018-04-19T23:26:55.359Z,12.30
2018-04-19T23:29:22.528Z,12.40
2018-04-19T23:31:50.371Z,12.40
2018-04-19T23:34:17.452Z,12.30
2018-04-19T23:36:44.481Z,12.30
2018-04-19T23:39:12.270Z,12.20
2018-04-19T23:41:39.316Z,12.20
2018-04-19T23:44:06.382Z,12.20
2018-04-19T23:46:33.448Z,12.10
2018-04-19T23:49:00.509Z,12.10
2018-04-19T23:51:27.533Z,12.00
2018-04-19T23:53:54.646Z,11.90
2018-04-19T23:56:21.741Z,11.90
2018-04-19T23:58:48.822Z,11.90
